sensor_id;sensor_type;location;lat;lon;timestamp;P1;durP1;ratioP1;P2;durP2;ratioP2
43429;SDS011;29028;43.234;27.896;2022-08-27T04:01:28;38.38;;;7.10;;
43429;SDS011;29028;43.234;27.896;2022-08-27T04:01:50;41.00;;;7.82;;
43429;SDS011;29028;43.234;27.896;2022-08-27T04:02:11;37.50;;;7.32;;
43429;SDS011;29028;43.234;27.896;2022-08-27T04:02:32;36.50;;;7.13;;
43429;SDS011;29028;43.234;27.896;2022-08-27T04:02:53;36.23;;;7.60;;
43429;SDS011;29028;43.234;27.896;2022-08-27T04:03:15;36.53;;;7.22;;
43429;SDS011;29028;43.234;27.896;2022-08-27T04:03:36;38.53;;;7.35;;
43429;SDS011;29028;43.234;27.896;2022-08-27T04:03:57;35.22;;;7.00;;
43429;SDS011;29028;43.234;27.896;2022-08-27T04:04:18;39.53;;;7.53;;
43429;SDS011;29028;43.234;27.896;2022-08-27T04:04:40;37.80;;;7.50;;
43429;SDS011;29028;43.234;27.896;2022-08-27T04:05:02;34.00;;;7.65;;
43429;SDS011;29028;43.234;27.896;2022-08-27T04:05:23;40.85;;;8.30;;
43429;SDS011;29028;43.234;27.896;2022-08-27T04:05:44;46.97;;;8.13;;
43429;SDS011;29028;43.234;27.896;2022-08-27T04:06:06;41.50;;;7.93;;
43429;SDS011;29028;43.234;27.896;2022-08-27T04:06:27;32.15;;;6.82;;
43429;SDS011;29028;43.234;27.896;2022-08-27T04:06:47;36.58;;;6.65;;
43429;SDS011;29028;43.234;27.896;2022-08-27T04:07:08;41.67;;;7.75;;
43429;SDS011;29028;43.234;27.896;2022-08-27T04:07:29;37.40;;;8.00;;
43429;SDS011;29028;43.234;27.896;2022-08-27T04:07:52;36.03;;;7.43;;
43429;SDS011;29028;43.234;27.896;2022-08-27T04:08:12;42.38;;;8.02;;
43429;SDS011;29028;43.234;27.896;2022-08-27T04:08:33;46.17;;;8.73;;
43429;SDS011;29028;43.234;27.896;2022-08-27T04:08:54;44.80;;;7.78;;
43429;SDS011;29028;43.234;27.896;2022-08-27T04:09:16;41.50;;;7.88;;
43429;SDS011;29028;43.234;27.896;2022-08-27T04:09:37;39.28;;;7.38;;
43429;SDS011;29028;43.234;27.896;2022-08-27T04:09:58;41.75;;;7.38;;
43429;SDS011;29028;43.234;27.896;2022-08-27T04:10:19;41.33;;;7.50;;
43429;SDS011;29028;43.234;27.896;2022-08-27T04:10:41;39.13;;;6.72;;
43429;SDS011;29028;43.234;27.896;2022-08-27T04:11:03;42.10;;;7.63;;
43429;SDS011;29028;43.234;27.896;2022-08-27T04:11:25;43.78;;;7.40;;
43429;SDS011;29028;43.234;27.896;2022-08-27T04:11:48;43.08;;;7.25;;
43429;SDS011;29028;43.234;27.896;2022-08-27T04:12:10;39.40;;;7.65;;
43429;SDS011;29028;43.234;27.896;2022-08-27T04:12:31;44.00;;;7.38;;
43429;SDS011;29028;43.234;27.896;2022-08-27T04:12:52;38.78;;;7.57;;
43429;SDS011;29028;43.234;27.896;2022-08-27T04:13:13;38.83;;;7.28;;
43429;SDS011;29028;43.234;27.896;2022-08-27T04:13:34;37.88;;;6.93;;
43429;SDS011;29028;43.234;27.896;2022-08-27T04:13:57;35.63;;;7.10;;
43429;SDS011;29028;43.234;27.896;2022-08-27T04:14:17;38.72;;;7.32;;
43429;SDS011;29028;43.234;27.896;2022-08-27T04:14:38;36.28;;;7.10;;
43429;SDS011;29028;43.234;27.896;2022-08-27T04:14:59;36.83;;;7.60;;
43429;SDS011;29028;43.234;27.896;2022-08-27T04:15:20;37.88;;;7.57;;
43429;SDS011;29028;43.234;27.896;2022-08-27T04:15:43;40.95;;;7.60;;
43429;SDS011;29028;43.234;27.896;2022-08-27T04:16:05;37.92;;;7.32;;
43429;SDS011;29028;43.234;27.896;2022-08-27T04:16:26;38.30;;;7.50;;
43429;SDS011;29028;43.234;27.896;2022-08-27T04:16:48;40.50;;;7.70;;
43429;SDS011;29028;43.234;27.896;2022-08-27T04:17:09;37.53;;;7.55;;
43429;SDS011;29028;43.234;27.896;2022-08-27T04:17:31;32.83;;;7.30;;
43429;SDS011;29028;43.234;27.896;2022-08-27T04:17:52;40.75;;;7.65;;
43429;SDS011;29028;43.234;27.896;2022-08-27T04:18:13;41.70;;;8.43;;
43429;SDS011;29028;43.234;27.896;2022-08-27T04:18:35;39.40;;;7.30;;
43429;SDS011;29028;43.234;27.896;2022-08-27T04:18:57;43.92;;;7.60;;
43429;SDS011;29028;43.234;27.896;2022-08-27T04:19:18;38.53;;;7.23;;
43429;SDS011;29028;43.234;27.896;2022-08-27T04:19:39;39.15;;;7.63;;
43429;SDS011;29028;43.234;27.896;2022-08-27T04:20:00;42.42;;;7.82;;
43429;SDS011;29028;43.234;27.896;2022-08-27T04:20:20;43.50;;;7.57;;
43429;SDS011;29028;43.234;27.896;2022-08-27T04:20:43;43.42;;;7.53;;
43429;SDS011;29028;43.234;27.896;2022-08-27T04:21:07;36.42;;;8.32;;
43429;SDS011;29028;43.234;27.896;2022-08-27T04:21:30;35.25;;;7.43;;
43429;SDS011;29028;43.234;27.896;2022-08-27T04:21:52;39.47;;;7.78;;
43429;SDS011;29028;43.234;27.896;2022-08-27T04:22:14;40.33;;;8.10;;
43429;SDS011;29028;43.234;27.896;2022-08-27T04:22:35;39.25;;;7.40;;
43429;SDS011;29028;43.234;27.896;2022-08-27T04:22:57;36.28;;;7.32;;
43429;SDS011;29028;43.234;27.896;2022-08-27T04:23:18;33.53;;;6.82;;
43429;SDS011;29028;43.234;27.896;2022-08-27T04:23:41;36.53;;;6.63;;
43429;SDS011;29028;43.234;27.896;2022-08-27T04:24:02;32.25;;;6.68;;
43429;SDS011;29028;43.234;27.896;2022-08-27T04:24:23;40.83;;;7.93;;
43429;SDS011;29028;43.234;27.896;2022-08-27T04:24:44;47.15;;;7.88;;
43429;SDS011;29028;43.234;27.896;2022-08-27T04:25:05;43.13;;;7.78;;
43429;SDS011;29028;43.234;27.896;2022-08-27T04:25:28;33.15;;;6.78;;
43429;SDS011;29028;43.234;27.896;2022-08-27T04:25:49;41.38;;;7.93;;
43429;SDS011;29028;43.234;27.896;2022-08-27T04:26:10;46.40;;;7.85;;
43429;SDS011;29028;43.234;27.896;2022-08-27T04:26:31;43.50;;;8.30;;
43429;SDS011;29028;43.234;27.896;2022-08-27T04:26:53;42.50;;;7.65;;
43429;SDS011;29028;43.234;27.896;2022-08-27T04:27:14;42.92;;;8.00;;
43429;SDS011;29028;43.234;27.896;2022-08-27T04:27:35;45.97;;;7.97;;
43429;SDS011;29028;43.234;27.896;2022-08-27T04:27:56;39.58;;;7.28;;
43429;SDS011;29028;43.234;27.896;2022-08-27T04:28:18;41.50;;;8.32;;
43429;SDS011;29028;43.234;27.896;2022-08-27T04:28:39;38.25;;;8.20;;
43429;SDS011;29028;43.234;27.896;2022-08-27T04:29:00;42.92;;;7.82;;
43429;SDS011;29028;43.234;27.896;2022-08-27T04:29:21;46.72;;;7.63;;
43429;SDS011;29028;43.234;27.896;2022-08-27T04:29:42;36.95;;;7.15;;
43429;SDS011;29028;43.234;27.896;2022-08-27T04:30:05;39.30;;;7.18;;
43429;SDS011;29028;43.234;27.896;2022-08-27T04:30:28;44.80;;;7.97;;
43429;SDS011;29028;43.234;27.896;2022-08-27T04:30:50;48.25;;;8.25;;
43429;SDS011;29028;43.234;27.896;2022-08-27T04:31:11;38.97;;;7.50;;
43429;SDS011;29028;43.234;27.896;2022-08-27T04:31:33;41.83;;;7.70;;
43429;SDS011;29028;43.234;27.896;2022-08-27T04:31:56;38.53;;;7.10;;
43429;SDS011;29028;43.234;27.896;2022-08-27T04:32:17;37.47;;;7.65;;
43429;SDS011;29028;43.234;27.896;2022-08-27T04:32:37;35.47;;;7.10;;
43429;SDS011;29028;43.234;27.896;2022-08-27T04:32:59;39.95;;;7.18;;
43429;SDS011;29028;43.234;27.896;2022-08-27T04:33:20;39.58;;;7.38;;
43429;SDS011;29028;43.234;27.896;2022-08-27T04:33:41;37.20;;;7.57;;
43429;SDS011;29028;43.234;27.896;2022-08-27T04:34:02;38.60;;;7.97;;
43429;SDS011;29028;43.234;27.896;2022-08-27T04:34:26;45.40;;;7.68;;
43429;SDS011;29028;43.234;27.896;2022-08-27T04:34:47;39.30;;;7.97;;
43429;SDS011;29028;43.234;27.896;2022-08-27T04:35:08;40.25;;;7.95;;
43429;SDS011;29028;43.234;27.896;2022-08-27T04:35:30;43.03;;;7.57;;
43429;SDS011;29028;43.234;27.896;2022-08-27T04:35:56;37.78;;;7.72;;
43429;SDS011;29028;43.234;27.896;2022-08-27T04:36:17;46.53;;;7.40;;
43429;SDS011;29028;43.234;27.896;2022-08-27T04:36:39;39.55;;;7.10;;
43429;SDS011;29028;43.234;27.896;2022-08-27T04:37:00;40.70;;;7.80;;
43429;SDS011;29028;43.234;27.896;2022-08-27T04:37:22;38.78;;;7.35;;
43429;SDS011;29028;43.234;27.896;2022-08-27T04:37:43;37.50;;;7.40;;
43429;SDS011;29028;43.234;27.896;2022-08-27T04:38:05;35.80;;;7.88;;
43429;SDS011;29028;43.234;27.896;2022-08-27T04:38:27;38.83;;;7.95;;
43429;SDS011;29028;43.234;27.896;2022-08-27T04:38:47;39.42;;;8.30;;
43429;SDS011;29028;43.234;27.896;2022-08-27T04:39:09;42.67;;;8.00;;
43429;SDS011;29028;43.234;27.896;2022-08-27T04:39:29;42.38;;;7.90;;
43429;SDS011;29028;43.234;27.896;2022-08-27T04:39:51;46.55;;;8.55;;
43429;SDS011;29028;43.234;27.896;2022-08-27T04:40:13;43.63;;;8.57;;
43429;SDS011;29028;43.234;27.896;2022-08-27T04:40:35;41.53;;;7.97;;
43429;SDS011;29028;43.234;27.896;2022-08-27T04:41:14;42.20;;;7.78;;
43429;SDS011;29028;43.234;27.896;2022-08-27T04:41:38;44.72;;;8.80;;
43429;SDS011;29028;43.234;27.896;2022-08-27T04:41:59;45.33;;;8.63;;
43429;SDS011;29028;43.234;27.896;2022-08-27T04:42:22;40.53;;;7.78;;
43429;SDS011;29028;43.234;27.896;2022-08-27T04:42:43;45.63;;;8.55;;
43429;SDS011;29028;43.234;27.896;2022-08-27T04:43:03;38.70;;;7.53;;
43429;SDS011;29028;43.234;27.896;2022-08-27T04:43:25;43.58;;;7.55;;
43429;SDS011;29028;43.234;27.896;2022-08-27T04:43:48;40.03;;;7.50;;
43429;SDS011;29028;43.234;27.896;2022-08-27T04:44:11;41.58;;;8.15;;
43429;SDS011;29028;43.234;27.896;2022-08-27T04:44:32;44.67;;;8.57;;
43429;SDS011;29028;43.234;27.896;2022-08-27T04:44:53;41.85;;;7.50;;
43429;SDS011;29028;43.234;27.896;2022-08-27T04:45:14;44.50;;;8.15;;
43429;SDS011;29028;43.234;27.896;2022-08-27T04:45:40;49.33;;;9.00;;
43429;SDS011;29028;43.234;27.896;2022-08-27T04:46:03;45.30;;;8.02;;
43429;SDS011;29028;43.234;27.896;2022-08-27T04:46:25;47.67;;;8.25;;
43429;SDS011;29028;43.234;27.896;2022-08-27T04:46:47;37.50;;;7.38;;
43429;SDS011;29028;43.234;27.896;2022-08-27T04:47:11;42.30;;;8.77;;
43429;SDS011;29028;43.234;27.896;2022-08-27T04:47:34;40.65;;;8.15;;
43429;SDS011;29028;43.234;27.896;2022-08-27T04:47:55;39.35;;;8.05;;
43429;SDS011;29028;43.234;27.896;2022-08-27T04:48:16;45.30;;;8.35;;
43429;SDS011;29028;43.234;27.896;2022-08-27T04:48:38;44.95;;;9.05;;
43429;SDS011;29028;43.234;27.896;2022-08-27T04:49:00;44.42;;;8.55;;
43429;SDS011;29028;43.234;27.896;2022-08-27T04:49:24;44.70;;;8.45;;
43429;SDS011;29028;43.234;27.896;2022-08-27T04:49:46;41.05;;;8.57;;
43429;SDS011;29028;43.234;27.896;2022-08-27T04:50:08;47.90;;;8.50;;
43429;SDS011;29028;43.234;27.896;2022-08-27T04:50:29;40.83;;;7.97;;
43429;SDS011;29028;43.234;27.896;2022-08-27T04:50:50;38.00;;;8.07;;
43429;SDS011;29028;43.234;27.896;2022-08-27T04:51:12;40.95;;;7.68;;
43429;SDS011;29028;43.234;27.896;2022-08-27T04:51:33;38.55;;;7.70;;
43429;SDS011;29028;43.234;27.896;2022-08-27T04:51:54;40.70;;;7.72;;
43429;SDS011;29028;43.234;27.896;2022-08-27T04:52:15;44.97;;;8.50;;
43429;SDS011;29028;43.234;27.896;2022-08-27T04:52:37;43.00;;;8.82;;
43429;SDS011;29028;43.234;27.896;2022-08-27T04:52:58;45.10;;;7.95;;
43429;SDS011;29028;43.234;27.896;2022-08-27T04:53:18;45.28;;;7.93;;
43429;SDS011;29028;43.234;27.896;2022-08-27T04:53:39;40.13;;;7.65;;
43429;SDS011;29028;43.234;27.896;2022-08-27T04:54:02;42.90;;;7.82;;
43429;SDS011;29028;43.234;27.896;2022-08-27T04:54:25;51.97;;;8.82;;
43429;SDS011;29028;43.234;27.896;2022-08-27T04:54:46;48.17;;;8.93;;
43429;SDS011;29028;43.234;27.896;2022-08-27T04:55:07;46.00;;;7.95;;
43429;SDS011;29028;43.234;27.896;2022-08-27T04:55:30;41.05;;;8.75;;
43429;SDS011;29028;43.234;27.896;2022-08-27T04:55:52;41.50;;;7.90;;
43429;SDS011;29028;43.234;27.896;2022-08-27T04:56:14;45.15;;;8.00;;
43429;SDS011;29028;43.234;27.896;2022-08-27T04:56:37;46.30;;;8.30;;
43429;SDS011;29028;43.234;27.896;2022-08-27T04:56:59;47.22;;;9.13;;
43429;SDS011;29028;43.234;27.896;2022-08-27T04:57:21;46.42;;;8.75;;
43429;SDS011;29028;43.234;27.896;2022-08-27T04:57:42;46.13;;;8.20;;
43429;SDS011;29028;43.234;27.896;2022-08-27T04:58:03;43.13;;;8.00;;
43429;SDS011;29028;43.234;27.896;2022-08-27T04:58:25;39.22;;;8.10;;
43429;SDS011;29028;43.234;27.896;2022-08-27T04:58:46;39.75;;;8.02;;
43429;SDS011;29028;43.234;27.896;2022-08-27T04:59:07;45.83;;;8.20;;
43429;SDS011;29028;43.234;27.896;2022-08-27T04:59:29;43.72;;;7.95;;
43429;SDS011;29028;43.234;27.896;2022-08-27T04:59:51;39.33;;;8.07;;
43429;SDS011;29028;43.234;27.896;2022-08-27T05:00:13;41.33;;;8.38;;
43429;SDS011;29028;43.234;27.896;2022-08-27T05:00:39;37.10;;;8.32;;
43429;SDS011;29028;43.234;27.896;2022-08-27T05:01:01;37.72;;;8.25;;
43429;SDS011;29028;43.234;27.896;2022-08-27T05:01:23;44.42;;;8.25;;
43429;SDS011;29028;43.234;27.896;2022-08-27T05:01:46;43.30;;;7.72;;
43429;SDS011;29028;43.234;27.896;2022-08-27T05:02:07;46.50;;;8.25;;
43429;SDS011;29028;43.234;27.896;2022-08-27T05:02:31;41.83;;;8.65;;
43429;SDS011;29028;43.234;27.896;2022-08-27T05:02:52;36.97;;;8.10;;
43429;SDS011;29028;43.234;27.896;2022-08-27T05:03:13;41.97;;;7.80;;
43429;SDS011;29028;43.234;27.896;2022-08-27T05:03:34;43.47;;;7.60;;
43429;SDS011;29028;43.234;27.896;2022-08-27T05:03:57;47.00;;;7.82;;
43429;SDS011;29028;43.234;27.896;2022-08-27T05:04:17;42.40;;;9.02;;
43429;SDS011;29028;43.234;27.896;2022-08-27T05:04:38;38.97;;;8.75;;
43429;SDS011;29028;43.234;27.896;2022-08-27T05:05:01;46.08;;;8.65;;
43429;SDS011;29028;43.234;27.896;2022-08-27T05:05:22;44.08;;;8.27;;
43429;SDS011;29028;43.234;27.896;2022-08-27T05:05:43;41.08;;;8.20;;
43429;SDS011;29028;43.234;27.896;2022-08-27T05:06:04;47.80;;;8.55;;
43429;SDS011;29028;43.234;27.896;2022-08-27T05:06:25;40.28;;;7.78;;
43429;SDS011;29028;43.234;27.896;2022-08-27T05:06:48;38.08;;;8.35;;
43429;SDS011;29028;43.234;27.896;2022-08-27T05:07:09;41.10;;;7.78;;
43429;SDS011;29028;43.234;27.896;2022-08-27T05:07:30;38.75;;;7.55;;
43429;SDS011;29028;43.234;27.896;2022-08-27T05:07:52;42.92;;;7.53;;
43429;SDS011;29028;43.234;27.896;2022-08-27T05:08:13;42.40;;;8.35;;
43429;SDS011;29028;43.234;27.896;2022-08-27T05:08:36;37.92;;;8.50;;
43429;SDS011;29028;43.234;27.896;2022-08-27T05:08:58;33.20;;;7.82;;
43429;SDS011;29028;43.234;27.896;2022-08-27T05:09:20;41.13;;;8.20;;
43429;SDS011;29028;43.234;27.896;2022-08-27T05:09:41;43.42;;;8.85;;
43429;SDS011;29028;43.234;27.896;2022-08-27T05:10:01;42.92;;;8.95;;
43429;SDS011;29028;43.234;27.896;2022-08-27T05:10:22;42.95;;;8.70;;
43429;SDS011;29028;43.234;27.896;2022-08-27T05:10:44;39.77;;;8.10;;
43429;SDS011;29028;43.234;27.896;2022-08-27T05:11:08;52.87;;;9.20;;
43429;SDS011;29028;43.234;27.896;2022-08-27T05:11:31;48.45;;;8.88;;
43429;SDS011;29028;43.234;27.896;2022-08-27T05:11:53;42.75;;;8.43;;
43429;SDS011;29028;43.234;27.896;2022-08-27T05:12:15;43.10;;;8.00;;
43429;SDS011;29028;43.234;27.896;2022-08-27T05:12:36;47.90;;;9.10;;
43429;SDS011;29028;43.234;27.896;2022-08-27T05:12:57;48.30;;;8.50;;
43429;SDS011;29028;43.234;27.896;2022-08-27T05:13:18;49.22;;;8.30;;
43429;SDS011;29028;43.234;27.896;2022-08-27T05:13:43;49.90;;;8.35;;
43429;SDS011;29028;43.234;27.896;2022-08-27T05:14:06;40.90;;;8.20;;
43429;SDS011;29028;43.234;27.896;2022-08-27T05:14:28;48.17;;;8.68;;
43429;SDS011;29028;43.234;27.896;2022-08-27T05:14:49;44.47;;;8.15;;
43429;SDS011;29028;43.234;27.896;2022-08-27T05:15:11;44.15;;;8.25;;
43429;SDS011;29028;43.234;27.896;2022-08-27T05:15:32;36.40;;;7.50;;
43429;SDS011;29028;43.234;27.896;2022-08-27T05:16:00;38.00;;;7.95;;
43429;SDS011;29028;43.234;27.896;2022-08-27T05:16:23;45.13;;;9.35;;
43429;SDS011;29028;43.234;27.896;2022-08-27T05:16:45;43.35;;;8.82;;
43429;SDS011;29028;43.234;27.896;2022-08-27T05:17:06;35.58;;;7.43;;
43429;SDS011;29028;43.234;27.896;2022-08-27T05:17:27;44.63;;;8.02;;
43429;SDS011;29028;43.234;27.896;2022-08-27T05:17:51;39.72;;;8.27;;
43429;SDS011;29028;43.234;27.896;2022-08-27T05:18:13;39.13;;;8.35;;
43429;SDS011;29028;43.234;27.896;2022-08-27T05:18:35;41.67;;;9.05;;
43429;SDS011;29028;43.234;27.896;2022-08-27T05:18:57;38.47;;;8.80;;
43429;SDS011;29028;43.234;27.896;2022-08-27T05:19:18;37.78;;;8.07;;
43429;SDS011;29028;43.234;27.896;2022-08-27T05:19:39;39.67;;;7.55;;
43429;SDS011;29028;43.234;27.896;2022-08-27T05:20:01;37.95;;;8.77;;
43429;SDS011;29028;43.234;27.896;2022-08-27T05:20:23;44.28;;;10.88;;
43429;SDS011;29028;43.234;27.896;2022-08-27T05:20:45;42.47;;;9.48;;
43429;SDS011;29028;43.234;27.896;2022-08-27T05:21:08;43.53;;;9.10;;
43429;SDS011;29028;43.234;27.896;2022-08-27T05:21:31;46.35;;;10.23;;
43429;SDS011;29028;43.234;27.896;2022-08-27T05:21:53;44.38;;;9.88;;
43429;SDS011;29028;43.234;27.896;2022-08-27T05:22:14;40.65;;;9.60;;
43429;SDS011;29028;43.234;27.896;2022-08-27T05:22:36;40.85;;;9.68;;
43429;SDS011;29028;43.234;27.896;2022-08-27T05:22:58;42.63;;;9.02;;
43429;SDS011;29028;43.234;27.896;2022-08-27T05:23:20;38.92;;;9.13;;
43429;SDS011;29028;43.234;27.896;2022-08-27T05:23:41;42.35;;;9.55;;
43429;SDS011;29028;43.234;27.896;2022-08-27T05:24:02;47.08;;;10.13;;
43429;SDS011;29028;43.234;27.896;2022-08-27T05:24:26;41.25;;;9.45;;
43429;SDS011;29028;43.234;27.896;2022-08-27T05:24:47;35.70;;;9.55;;
43429;SDS011;29028;43.234;27.896;2022-08-27T05:25:08;42.60;;;9.75;;
43429;SDS011;29028;43.234;27.896;2022-08-27T05:25:30;45.10;;;10.13;;
43429;SDS011;29028;43.234;27.896;2022-08-27T05:25:51;42.13;;;9.57;;
43429;SDS011;29028;43.234;27.896;2022-08-27T05:26:13;42.72;;;8.70;;
43429;SDS011;29028;43.234;27.896;2022-08-27T05:26:34;41.13;;;8.68;;
43429;SDS011;29028;43.234;27.896;2022-08-27T05:26:56;34.80;;;8.65;;
43429;SDS011;29028;43.234;27.896;2022-08-27T05:27:18;39.35;;;9.50;;
43429;SDS011;29028;43.234;27.896;2022-08-27T05:27:39;34.70;;;8.70;;
43429;SDS011;29028;43.234;27.896;2022-08-27T05:27:59;36.70;;;8.88;;
43429;SDS011;29028;43.234;27.896;2022-08-27T05:28:21;38.03;;;9.10;;
43429;SDS011;29028;43.234;27.896;2022-08-27T05:28:44;42.25;;;9.25;;
43429;SDS011;29028;43.234;27.896;2022-08-27T05:29:05;39.65;;;9.25;;
43429;SDS011;29028;43.234;27.896;2022-08-27T05:29:26;43.22;;;9.77;;
43429;SDS011;29028;43.234;27.896;2022-08-27T05:29:48;42.38;;;9.30;;
43429;SDS011;29028;43.234;27.896;2022-08-27T05:30:09;38.40;;;9.23;;
43429;SDS011;29028;43.234;27.896;2022-08-27T05:30:34;43.95;;;9.93;;
43429;SDS011;29028;43.234;27.896;2022-08-27T05:31:02;42.22;;;9.48;;
43429;SDS011;29028;43.234;27.896;2022-08-27T05:31:24;37.60;;;8.48;;
43429;SDS011;29028;43.234;27.896;2022-08-27T05:31:46;40.03;;;8.27;;
43429;SDS011;29028;43.234;27.896;2022-08-27T05:32:07;41.95;;;9.00;;
43429;SDS011;29028;43.234;27.896;2022-08-27T05:32:28;40.05;;;9.45;;
43429;SDS011;29028;43.234;27.896;2022-08-27T05:32:51;39.75;;;9.77;;
43429;SDS011;29028;43.234;27.896;2022-08-27T05:33:13;43.78;;;9.82;;
43429;SDS011;29028;43.234;27.896;2022-08-27T05:33:35;39.60;;;8.75;;
43429;SDS011;29028;43.234;27.896;2022-08-27T05:33:58;41.88;;;9.18;;
43429;SDS011;29028;43.234;27.896;2022-08-27T05:34:20;36.42;;;9.02;;
43429;SDS011;29028;43.234;27.896;2022-08-27T05:34:41;35.33;;;8.43;;
43429;SDS011;29028;43.234;27.896;2022-08-27T05:35:03;41.83;;;9.57;;
43429;SDS011;29028;43.234;27.896;2022-08-27T05:35:24;43.40;;;10.25;;
43429;SDS011;29028;43.234;27.896;2022-08-27T05:35:46;36.35;;;8.88;;
43429;SDS011;29028;43.234;27.896;2022-08-27T05:36:13;36.47;;;9.00;;
43429;SDS011;29028;43.234;27.896;2022-08-27T05:36:37;47.15;;;10.52;;
43429;SDS011;29028;43.234;27.896;2022-08-27T05:36:59;46.42;;;10.50;;
43429;SDS011;29028;43.234;27.896;2022-08-27T05:37:21;30.85;;;8.43;;
43429;SDS011;29028;43.234;27.896;2022-08-27T05:37:42;34.47;;;8.47;;
43429;SDS011;29028;43.234;27.896;2022-08-27T05:38:03;42.15;;;9.82;;
43429;SDS011;29028;43.234;27.896;2022-08-27T05:38:25;44.33;;;10.25;;
43429;SDS011;29028;43.234;27.896;2022-08-27T05:38:46;37.92;;;9.52;;
43429;SDS011;29028;43.234;27.896;2022-08-27T05:39:09;32.85;;;8.57;;
43429;SDS011;29028;43.234;27.896;2022-08-27T05:39:30;37.15;;;9.00;;
43429;SDS011;29028;43.234;27.896;2022-08-27T05:39:51;33.65;;;8.50;;
43429;SDS011;29028;43.234;27.896;2022-08-27T05:40:11;37.42;;;9.55;;
43429;SDS011;29028;43.234;27.896;2022-08-27T05:40:32;40.90;;;9.43;;
43429;SDS011;29028;43.234;27.896;2022-08-27T05:41:00;44.03;;;10.40;;
43429;SDS011;29028;43.234;27.896;2022-08-27T05:41:23;43.40;;;9.70;;
43429;SDS011;29028;43.234;27.896;2022-08-27T05:41:47;35.70;;;9.35;;
43429;SDS011;29028;43.234;27.896;2022-08-27T05:42:11;48.25;;;10.23;;
43429;SDS011;29028;43.234;27.896;2022-08-27T05:42:32;47.45;;;10.70;;
43429;SDS011;29028;43.234;27.896;2022-08-27T05:42:53;42.78;;;10.93;;
43429;SDS011;29028;43.234;27.896;2022-08-27T05:43:15;40.70;;;10.02;;
43429;SDS011;29028;43.234;27.896;2022-08-27T05:43:38;40.83;;;9.55;;
43429;SDS011;29028;43.234;27.896;2022-08-27T05:44:02;41.53;;;9.35;;
43429;SDS011;29028;43.234;27.896;2022-08-27T05:44:25;46.17;;;9.40;;
43429;SDS011;29028;43.234;27.896;2022-08-27T05:44:45;41.23;;;9.07;;
43429;SDS011;29028;43.234;27.896;2022-08-27T05:45:09;42.85;;;9.45;;
43429;SDS011;29028;43.234;27.896;2022-08-27T05:45:30;44.10;;;9.80;;
43429;SDS011;29028;43.234;27.896;2022-08-27T05:45:51;41.55;;;9.32;;
43429;SDS011;29028;43.234;27.896;2022-08-27T05:46:12;39.93;;;9.80;;
43429;SDS011;29028;43.234;27.896;2022-08-27T05:46:36;43.78;;;9.93;;
43429;SDS011;29028;43.234;27.896;2022-08-27T05:46:59;41.38;;;9.57;;
43429;SDS011;29028;43.234;27.896;2022-08-27T05:47:19;39.97;;;9.73;;
43429;SDS011;29028;43.234;27.896;2022-08-27T05:47:40;39.03;;;9.02;;
43429;SDS011;29028;43.234;27.896;2022-08-27T05:48:03;38.38;;;9.02;;
43429;SDS011;29028;43.234;27.896;2022-08-27T05:48:25;44.92;;;10.15;;
43429;SDS011;29028;43.234;27.896;2022-08-27T05:48:45;41.03;;;9.15;;
43429;SDS011;29028;43.234;27.896;2022-08-27T05:49:07;36.47;;;8.35;;
43429;SDS011;29028;43.234;27.896;2022-08-27T05:49:29;44.53;;;9.52;;
43429;SDS011;29028;43.234;27.896;2022-08-27T05:49:50;43.20;;;9.63;;
43429;SDS011;29028;43.234;27.896;2022-08-27T05:50:11;42.92;;;9.07;;
43429;SDS011;29028;43.234;27.896;2022-08-27T05:50:32;38.25;;;9.35;;
43429;SDS011;29028;43.234;27.896;2022-08-27T05:50:53;42.47;;;9.85;;
43429;SDS011;29028;43.234;27.896;2022-08-27T05:51:15;44.70;;;9.67;;
43429;SDS011;29028;43.234;27.896;2022-08-27T05:51:39;37.72;;;8.65;;
43429;SDS011;29028;43.234;27.896;2022-08-27T05:52:01;40.22;;;8.65;;
43429;SDS011;29028;43.234;27.896;2022-08-27T05:52:22;45.83;;;8.73;;
43429;SDS011;29028;43.234;27.896;2022-08-27T05:52:43;48.05;;;8.43;;
43429;SDS011;29028;43.234;27.896;2022-08-27T05:53:05;43.05;;;8.43;;
43429;SDS011;29028;43.234;27.896;2022-08-27T05:53:28;42.33;;;8.48;;
43429;SDS011;29028;43.234;27.896;2022-08-27T05:53:48;41.42;;;8.25;;
43429;SDS011;29028;43.234;27.896;2022-08-27T05:54:10;52.10;;;8.55;;
43429;SDS011;29028;43.234;27.896;2022-08-27T05:54:35;44.33;;;8.35;;
43429;SDS011;29028;43.234;27.896;2022-08-27T05:54:58;43.15;;;8.23;;
43429;SDS011;29028;43.234;27.896;2022-08-27T05:55:19;40.75;;;8.25;;
43429;SDS011;29028;43.234;27.896;2022-08-27T05:55:40;36.88;;;8.00;;
43429;SDS011;29028;43.234;27.896;2022-08-27T05:56:04;46.60;;;7.82;;
43429;SDS011;29028;43.234;27.896;2022-08-27T05:56:31;41.42;;;8.10;;
43429;SDS011;29028;43.234;27.896;2022-08-27T05:56:54;41.50;;;8.45;;
43429;SDS011;29028;43.234;27.896;2022-08-27T05:57:15;38.17;;;8.70;;
43429;SDS011;29028;43.234;27.896;2022-08-27T05:57:37;40.90;;;8.27;;
43429;SDS011;29028;43.234;27.896;2022-08-27T05:57:58;38.70;;;8.02;;
43429;SDS011;29028;43.234;27.896;2022-08-27T05:58:18;40.13;;;7.77;;
43429;SDS011;29028;43.234;27.896;2022-08-27T05:59:00;41.75;;;8.13;;
43429;SDS011;29028;43.234;27.896;2022-08-27T05:59:40;48.88;;;8.20;;
43429;SDS011;29028;43.234;27.896;2022-08-27T06:00:19;39.87;;;7.70;;
43429;SDS011;29028;43.234;27.896;2022-08-27T06:00:58;42.85;;;8.85;;
43429;SDS011;29028;43.234;27.896;2022-08-27T06:01:26;47.28;;;8.23;;
43429;SDS011;29028;43.234;27.896;2022-08-27T06:01:47;46.55;;;7.85;;
43429;SDS011;29028;43.234;27.896;2022-08-27T06:02:11;42.45;;;7.88;;
43429;SDS011;29028;43.234;27.896;2022-08-27T06:02:32;42.77;;;7.57;;
43429;SDS011;29028;43.234;27.896;2022-08-27T06:02:56;39.83;;;8.00;;
43429;SDS011;29028;43.234;27.896;2022-08-27T06:03:18;44.80;;;8.30;;
43429;SDS011;29028;43.234;27.896;2022-08-27T06:03:39;42.05;;;8.00;;
43429;SDS011;29028;43.234;27.896;2022-08-27T06:04:01;40.00;;;8.20;;
43429;SDS011;29028;43.234;27.896;2022-08-27T06:04:23;44.83;;;8.57;;
43429;SDS011;29028;43.234;27.896;2022-08-27T06:04:44;42.92;;;7.55;;
43429;SDS011;29028;43.234;27.896;2022-08-27T06:05:05;39.28;;;7.80;;
43429;SDS011;29028;43.234;27.896;2022-08-27T06:05:28;41.70;;;7.47;;
43429;SDS011;29028;43.234;27.896;2022-08-27T06:05:49;44.35;;;7.55;;
43429;SDS011;29028;43.234;27.896;2022-08-27T06:06:18;38.78;;;7.80;;
43429;SDS011;29028;43.234;27.896;2022-08-27T06:06:40;44.63;;;8.75;;
43429;SDS011;29028;43.234;27.896;2022-08-27T06:07:03;41.70;;;7.85;;
43429;SDS011;29028;43.234;27.896;2022-08-27T06:07:28;42.08;;;7.13;;
43429;SDS011;29028;43.234;27.896;2022-08-27T06:07:49;39.28;;;7.57;;
43429;SDS011;29028;43.234;27.896;2022-08-27T06:08:09;40.55;;;8.32;;
43429;SDS011;29028;43.234;27.896;2022-08-27T06:08:31;42.45;;;7.95;;
43429;SDS011;29028;43.234;27.896;2022-08-27T06:08:53;36.58;;;7.28;;
43429;SDS011;29028;43.234;27.896;2022-08-27T06:09:15;42.08;;;8.45;;
43429;SDS011;29028;43.234;27.896;2022-08-27T06:09:39;38.35;;;8.55;;
43429;SDS011;29028;43.234;27.896;2022-08-27T06:10:00;38.58;;;7.50;;
43429;SDS011;29028;43.234;27.896;2022-08-27T06:10:21;40.72;;;7.88;;
43429;SDS011;29028;43.234;27.896;2022-08-27T06:10:43;35.90;;;7.75;;